CAT,Max TemperatureF,Mean TemperatureF,Min TemperatureF,Max Dew PointF,MeanDew PointF,Min DewpointF,Max Humidity, Mean Humidity, Min Humidity, Max Sea Level PressureIn, Mean Sea Level PressureIn, Min Sea Level PressureIn, Max VisibilityMiles, Mean VisibilityMiles, Min VisibilityMiles, Max Wind SpeedMPH, Mean Wind SpeedMPH, Max Gust SpeedMPH,PrecipitationIn, CloudCover, Events, WindDirDegrees
2013-3-1,88,73,58,63,59,54,67,49,27,30.04,30.01,29.98,19,16,6,9,5,,0.00,6,,190
2013-3-2,82,73,64,63,61,59,88,66,38,30.15,30.11,30.09,19,14,6,16,4,,0.00,7,,143
2013-3-3,79,71,66,63,62,61,88,73,52,30.24,30.21,30.18,19,13,6,17,6,,0.00,7,Rain,130
2013-3-4,80,70,64,64,63,60,94,74,61,30.24,30.20,30.18,19,12,6,23,8,,0.00,5,,142
2013-3-5,78,70,63,64,63,62,94,81,51,30.21,30.20,30.18,19,16,6,12,2,,0.00,8,Rain,-1
2013-3-6,86,70,57,65,62,60,94,68,34,,,,19,16,12,1,0,,0.00,,,-1
2013-3-7,93,77,62,66,61,58,94,65,22,30.06,30.03,30.01,19,18,16,12,2,,0.00,,,170
2013-3-8,92,76,65,65,63,58,88,64,38,30.06,30.05,30.04,19,11,6,14,4,,0.00,4,Rain-Thunderstorm,355
2013-3-9,90,76,68,65,64,63,86,68,46,30.15,30.11,30.06,16,12,6,10,5,,0.00,6,Thunderstorm,4
2013-3-10,75,68,64,67,64,63,98,87,80,30.21,30.21,30.21,16,10,6,23,14,,0.00,8,Rain,160
2013-3-11,68,66,61,61,60,59,99,83,71,30.30,30.27,30.24,16,8,3,13,11,,0.00,8,Rain,150
2013-3-12,72,64,59,55,53,50,77,64,38,30.27,30.27,30.27,19,14,6,12,9,,0.00,6,,150
2013-3-13,77,65,53,59,56,54,98,62,38,30.18,30.12,30.09,19,16,6,14,6,,0.00,6,,140
2013-3-14,72,60,55,54,53,52,94,68,40,30.24,30.20,30.18,19,11,6,14,5,,0.00,2,,150
2013-3-15,64,,55,56,56,56,70,70,70,,,,19,19,19,10,10,,0.00,,,-1
2013-3-16,85,70,55,59,53,48,74,42,19,30.15,30.12,30.09,19,18,16,10,5,,0.00,,,265
2013-3-17,91,71,53,57,53,50,82,46,18,30.09,30.06,30.04,19,18,16,12,3,,0.00,,,140
2013-3-18,92,75,61,66,59,54,72,52,23,30.09,30.08,30.06,19,16,6,9,2,,0.00,3,,290
2013-3-19,90,77,65,66,63,57,100,69,24,30.06,30.05,30.04,19,17,16,4,1,,0.00,,,-1
2013-3-20,83,68,64,64,61,56,83,68,52,,,,19,19,19,17,8,,0.00,,,-1
2013-3-21,82,72,61,62,57,54,76,57,32,30.21,30.16,30.12,19,14,6,6,5,,0.00,3,,135
2013-3-22,82,66,54,59,56,54,94,74,33,30.12,30.11,30.09,19,15,9,17,2,,0.00,,,-1
2013-3-23,83,68,53,57,55,51,94,66,23,30.04,30.04,30.04,19,18,16,4,1,,0.00,,,-1
2013-3-24,83,68,54,57,55,54,94,64,27,30.06,30.06,30.06,19,18,16,2,0,,0.00,,,-1
2013-3-25,83,67,52,57,55,54,81,55,29,,,,19,19,19,14,3,,0.00,,,-1
2013-3-26,79,,79,57,57,57,37,37,37,,,,19,19,19,12,12,,0.00,,,-1
2013-3-27,77,68,62,63,61,58,94,77,52,30.21,30.18,30.15,19,12,6,12,4,,0.00,6,Rain,165
2013-3-28,80,66,53,59,55,54,94,61,33,30.24,30.19,30.15,19,14,6,17,6,,0.00,4,,133
2013-3-29,84,68,55,59,56,54,94,71,34,30.24,30.22,30.21,19,11,6,12,2,,0.00,1,,-1
2013-3-30,81,68,55,59,56,53,67,50,31,,,,19,19,19,15,5,,0.00,,,-1
2013-3-31,80,68,55,61,59,54,88,66,42,30.24,30.21,30.18,19,14,6,16,6,,0.00,2,,120